INFORMACIÓN METAR y TAF
METAR FOR LRCL
ADDS - METARS form results

(0514 UTC 22 August 2019)
Data provider http://aviationweather.gov/metar/data/
 
METAR text: LRCL 220500Z 00000KT CAVOK 20/16 Q1023
Conditions at: LRCL (CLUJ-NAPOCA/SOME, RO) observed 0500 UTC 22 August 2019
Temperature: 20.0°C (68°F)
Dewpoint: 16.0°C (61°F) [RH = 78%]
Pressure (altimeter): 30.21 inches Hg (1023.0 mb)
Winds: calm
Visibility: 6 or more miles (10+ km)
Ceiling: ceiling and visibility are OK
Clouds: unknown
Weather: no significant weather observed at this time

METAR text: LRCL 220430Z 00000KT CAVOK 19/16 Q1023
Conditions at: LRCL (CLUJ-NAPOCA/SOME, RO) observed 0430 UTC 22 August 2019
Temperature: 19.0°C (66°F)
Dewpoint: 16.0°C (61°F) [RH = 83%]
Pressure (altimeter): 30.21 inches Hg (1023.0 mb)
Winds: calm
Visibility: 6 or more miles (10+ km)
Ceiling: ceiling and visibility are OK
Clouds: unknown
Weather: no significant weather observed at this time

Forecast for: LRCL (CLUJ-NAPOCA/SOME, RO)
Text: TAF LRCL 220200Z 2203/2212 VRB04KT CAVOK
Forecast period: 0300 to 1200 UTC 22 August 2019
Forecast type: FROM: standard forecast or significant change
Winds: variable direction winds at 5 MPH (4 knots; 2.1 m/s)
Visibility: 6 or more miles 10+ km)
Ceiling: unknown
Clouds: missing
Weather: NSW  (no significant weather)

 MAPA DE AEROPUERTO

 INFORMACIÓN DE PISTA
Pista 07 Longitud 6070 ft Ancho 98 ft
Elevación 1036 ft Umbral desplazado 0 ft Rumbo de pista 79
Pista 25 Longitud 6070 ft Ancho 98 ft
Elevación 1025 ft Umbral desplazado 0 ft Rumbo de pista 259
Pista 08 Longitud 0 ft Ancho 0 ft
Elevación 1036 ft Umbral desplazado 0 ft Rumbo de pista 0
Pista 26 Longitud 0 ft Ancho 0 ft
Elevación 1025 ft Umbral desplazado 0 ft Rumbo de pista 0

 FRECUANCIAS DEL AEROPUERTO
Tipo APP Nombre APP Frecuencia 125.1 MHZ
Tipo GCA Nombre PRECISION Frecuencia 118.7 MHZ
Tipo TWR Nombre TWR Frecuencia 134.4 MHZ

 RADIO AYUDAS DEL AEROPUERTO
Tipo VOR-DME Nombre Cluj Frecuencia 111200 KHZ



              


PayPal

©2019 Oasis Virtual Airlines
Simulando desde el 2013

Oasis Líneas Aéreas Virtuales no está relacionada con ninguna compañía real.
Se trata de un entorno virtual de simulación aérea, sin ánimo de lucro.


Visitas: 43.068

VAM v2.6.2 [MOD.]